Relevés horaires Koksijde (Belgique)


Relevés horaires à Koksijde - Lundi 06 Sept. 2021
Heure UTC1 Température [°C] Vent [km/h] Hum. [%] Pres.4 [hPa] Visi. [Km] Nébu. [octa] Préc.5 [mm] Cond.
2m. Res. Ros. Dir.2 Vit. Moy. Raf.3
23:00 15.9 15.9 13.1 NNO 1.9 -- 3.7 83 1023.7(-0.1/3h) 6 -- -- --
22:00 17.3 17.3 13.7 NNO 1.9 -- 1.9 79 1023.7(0.3/3h) 6 -- -- --
21:00 17.8 17.8 13.9 NNO 1.9 -- 5.6 78 1024(0.6/3h) 8 -- -- --
20:00 18.5 18.5 14.1 NNO 1.9 -- 3.7 76 1024(0.7/3h) 7 -- -- --
19:00 19.2 19.2 14.5 NNO 1.9 -- 5.6 74 1023.3(0.0/3h) 10 -- -- --
18:00 22.1 22.1 14.6 E 3.7 -- 9.3 62 1023.2(-0.2/3h) 17 -- -- --
17:00 24.6 24.6 14.9 E 3.7 -- 7.4 55 1023.2(-0.4/3h) 20 -- -- --
16:00 24.3 24.3 15.2 NNE 3.7 -- 7.4 57 1023.3(-0.4/3h) 19 -- -- --
15:00 25.9 25.9 15.3 N 3.7 -- 9.3 52 1023.5(-0.5/3h) 13 -- -- --
14:00 25.9 25.9 15.1 N 3.7 -- 9.3 51 1023.6(-0.4/3h) 15 6/8 -- --
13:00 25.9 25.9 15.5 E 3.7 -- 7.4 53 1023.7(-0.4/3h) 15 6/8 -- --
12:00 25.8 25.8 14.1 NNO 1.9 -- 7.4 48 1024(0.0/3h) 15 4/8 -- --
11:00 24.9 24.9 12.8 ESE 3.7 -- 7.4 47 1024(0.1/3h) 15 2/8 -- --
10:00 24.6 24.6 15.1 ESE 5.6 -- 7.4 55 1024.2(0.6/3h) 12 2/8 -- --
09:00 22.4 22.4 16.2 NNO 1.9 -- 3.7 68 1024(0.8/3h) 7 4/8 -- --
08:00 19.6 19.6 15.1 NNO 1.9 -- 3.7 75 1024(1.3/3h) 6 4/8 -- --
07:00 16.6 16.6 14.2 NNO 1.9 -- 1.9 86 1023.6(1.1/3h) 5 4/8 -- --
06:00 13.5 13.5 12.4 NNO 1.9 -- 3.7 93 1023.2(0.7/3h) 6 4/8 -- --
05:00 13.3 13.3 12.2 NNO 1.9 -- 1.9 93 1022.6(0.0/3h) 5 4/8 -- --
04:00 13.1 13.1 11.8 NNO 1.9 -- 3.7 92 1022.5(0.1/3h) 4.9 -- -- --
03:00 13.8 13.8 12.2 NNO 1.9 -- 3.7 90 1022.5(0.0/3h) 5 -- -- --
02:00 14.6 14.6 12.5 NNO 1.9 -- 3.7 87 1022.6(0.1/3h) 7 -- -- --
01:00 14.8 14.8 12.8 NNO 1.9 -- 3.7 88 1022.3(0.2/3h) 7 -- -- --
00:00 15.3 15.3 13.2 NNO 1.9 -- 7.4 87 1022.3(0.3/3h) 7 -- -- --

1 Coordinated Universal Time. Actuellement il est 00:00 locale et 22:00 UTC.

2 Le vent souffle depuis la direction indiquée vers la direction oposée.

3 Les rafales max. sont disponible 40 min après l'heure du relevé.

4 Pour les stations d'altitude (plus de 600m) le géopotentiel du niveau le plus proche de la pression obligatoire est indiqué.

5 Les stations disposant d'un diffuseur peuvent indiquer "trace". Cela signifie que des précipitations ont touchés le sol mais que la quantité est inférieure à 0.1 mm.

Récapitulatif de la journée
Température [°C] Vent [km/h] Ensoleillement4 [h] Precipitations totale5 [mm] Pression [Hpa]
Min1 Max.2 Moy.3 Max. Min Max.
12.8 26.6 0 9.3 0 h 0 min 0 1022.3 1024.2

1 Température minimale relevée entre 18:00 UTC la veille et 18:00 UTC le jour donné.

2 Température maximale relevée entre 06:00 UTC le jour donné et 06:00 UTC le lendemain.

3 Vent moyen de la journée basé sur les relevés horaires.

4 Ensoleillement en heures relevé entre 06:00 UTC la veille et 06:00 UTC le jour donné.

5 Précipitations totales tombées entre 06:00 UTC la jour donné et 06:00 UTC le lendemain.

Graphiques horaires